Time;durP1;ratioP1;P1;durP2;ratioP2;P2;SDS_P1;SDS_P2;PMS_P1;PMS_P2;Temp;Humidity;BMP_temperature;BMP_pressure;BME280_temperature;BME280_humidity;BME280_pressure;Samples;Min_cycle;Max_cycle;Signal;HPM_P1;HPM_P2
2021/11/01 00:00:18;;;;;;;4.40;1.83;;;22.10;63.50;;;;;;5073854;28;20377;-65
2021/11/01 00:02:48;;;;;;;5.95;1.77;;;22.00;63.50;;;;;;5073592;28;20021;-63
2021/11/01 00:05:16;;;;;;;4.10;1.60;;;22.10;63.40;;;;;;5072923;28;20032;-63
2021/11/01 00:07:43;;;;;;;6.82;2.50;;;22.10;63.90;;;;;;5065654;28;20032;-63
2021/11/01 00:10:12;;;;;;;3.97;1.55;;;22.10;63.90;;;;;;5071427;28;20024;-63
2021/11/01 00:12:40;;;;;;;6.45;1.90;;;22.10;64.00;;;;;;5070240;28;20025;-62
2021/11/01 00:15:09;;;;;;;4.68;1.58;;;22.10;63.60;;;;;;5067824;28;20020;-62
2021/11/01 00:17:37;;;;;;;7.55;1.90;;;22.20;63.20;;;;;;5067784;28;20098;-69
2021/11/01 00:20:06;;;;;;;4.30;1.45;;;22.30;63.80;;;;;;5069287;28;20431;-66
2021/11/01 00:22:35;;;;;;;8.48;1.90;;;22.40;63.00;;;;;;5070895;28;20115;-66
2021/11/01 00:25:04;;;;;;;4.10;1.08;;;22.50;62.60;;;;;;5069011;28;20139;-68
2021/11/01 00:27:32;;;;;;;3.25;1.40;;;22.50;62.50;;;;;;5066428;28;20041;-66
2021/11/01 00:30:00;;;;;;;6.25;1.50;;;22.50;62.40;;;;;;5067952;28;20035;-65
2021/11/01 00:32:27;;;;;;;6.72;2.55;;;22.40;62.50;;;;;;5069119;28;20042;-64
2021/11/01 00:34:55;;;;;;;5.82;1.80;;;22.50;62.30;;;;;;5085062;28;20021;-67
2021/11/01 00:37:22;;;;;;;6.53;1.63;;;22.50;62.70;;;;;;5063645;28;20037;-66
2021/11/01 00:39:49;;;;;;;4.80;1.52;;;22.50;62.00;;;;;;5066818;28;20111;-61
2021/11/01 00:42:17;;;;;;;5.20;1.40;;;22.50;62.00;;;;;;5082923;28;20027;-64
2021/11/01 00:44:44;;;;;;;4.63;1.60;;;22.50;62.90;;;;;;5071284;28;20052;-65
2021/11/01 00:47:13;;;;;;;3.25;1.20;;;22.50;63.00;;;;;;5070078;28;20044;-65
2021/11/01 00:49:41;;;;;;;3.58;1.23;;;22.40;63.10;;;;;;5073632;28;20041;-63
2021/11/01 00:52:09;;;;;;;5.20;1.85;;;22.50;63.00;;;;;;5065179;28;20024;-63
2021/11/01 00:54:36;;;;;;;4.45;1.33;;;22.50;62.80;;;;;;5070359;28;20143;-64
2021/11/01 00:57:04;;;;;;;9.25;1.75;;;22.50;62.70;;;;;;5068793;28;20047;-63
2021/11/01 00:59:32;;;;;;;6.57;1.48;;;22.60;62.50;;;;;;5071714;28;20086;-63
2021/11/01 01:01:59;;;;;;;7.65;1.25;;;22.50;63.00;;;;;;5072044;28;20502;-64
2021/11/01 01:04:26;;;;;;;5.85;1.45;;;22.60;62.90;;;;;;5069017;28;20082;-62
2021/11/01 01:06:54;;;;;;;6.38;1.50;;;22.60;62.90;;;;;;5072069;28;20100;-63
2021/11/01 01:09:21;;;;;;;4.18;1.83;;;22.50;62.90;;;;;;5069812;28;20041;-61
2021/11/01 01:11:49;;;;;;;7.03;1.13;;;22.60;62.70;;;;;;5070954;28;20033;-57
2021/11/01 01:14:18;;;;;;;4.88;1.17;;;22.70;62.70;;;;;;5071013;28;20031;-61
2021/11/01 01:16:46;;;;;;;4.43;1.88;;;22.70;62.70;;;;;;5068456;28;20016;-61
2021/11/01 01:19:18;;;;;;;4.70;2.03;;;22.70;62.70;;;;;;5067279;28;20028;-62
2021/11/01 01:24:32;;;;;;;3.47;1.30;;;22.70;62.60;;;;;;5069929;28;20070;-61
2021/11/01 01:27:00;;;;;;;2.33;1.20;;;22.80;62.70;;;;;;5062392;28;20119;-65
2021/11/01 01:29:27;;;;;;;3.35;1.50;;;22.80;62.70;;;;;;5070043;28;20032;-63
2021/11/01 01:31:54;;;;;;;6.78;1.50;;;22.80;62.60;;;;;;5070190;28;20466;-63
2021/11/01 01:34:23;;;;;;;5.28;1.40;;;22.80;62.70;;;;;;5070438;28;20025;-63
2021/11/01 01:36:50;;;;;;;5.57;1.27;;;22.90;62.50;;;;;;5068327;28;20146;-64
2021/11/01 01:39:18;;;;;;;7.22;1.17;;;22.90;62.60;;;;;;5068330;28;20442;-65
2021/11/01 01:41:47;;;;;;;4.82;1.58;;;22.90;62.00;;;;;;5069285;28;20024;-65
2021/11/01 01:44:16;;;;;;;3.88;1.60;;;22.90;62.50;;;;;;5068788;28;20486;-63
2021/11/01 01:46:44;;;;;;;3.13;1.00;;;22.80;62.30;;;;;;5068947;28;20028;-62
2021/11/01 01:49:11;;;;;;;3.88;1.08;;;22.90;62.00;;;;;;5068038;28;20036;-63
2021/11/01 01:51:39;;;;;;;4.47;1.20;;;22.90;62.40;;;;;;5069861;28;20048;-63
2021/11/01 01:54:07;;;;;;;3.67;1.38;;;22.90;62.30;;;;;;5069890;28;20059;-63
2021/11/01 01:56:35;;;;;;;2.92;1.20;;;22.90;62.50;;;;;;5069522;28;20487;-64
2021/11/01 01:59:06;;;;;;;4.25;1.33;;;22.90;62.60;;;;;;5064153;28;20032;-64
2021/11/01 02:01:34;;;;;;;5.00;1.27;;;22.90;62.40;;;;;;5065346;28;20020;-63
2021/11/01 02:04:17;;;;;;;3.92;1.40;;;22.90;62.30;;;;;;5067623;28;20025;-63
2021/11/01 02:07:06;;;;;;;6.80;1.90;;;22.90;62.80;;;;;;5065403;28;20021;-63
2021/11/01 02:09:43;;;;;;;4.20;1.40;;;22.90;62.40;;;;;;5067158;28;20109;-62
2021/11/01 02:12:23;;;;;;;5.15;1.55;;;22.90;62.80;;;;;;5067188;28;20129;-64
2021/11/01 02:14:56;;;;;;;4.20;1.75;;;22.90;63.10;;;;;;5069540;28;20031;-63
2021/11/01 02:17:30;;;;;;;7.32;1.42;;;22.80;63.00;;;;;;5063282;28;20062;-64
2021/11/01 02:20:06;;;;;;;5.50;1.63;;;22.80;63.20;;;;;;5069641;28;20029;-64
2021/11/01 02:22:55;;;;;;;3.88;1.70;;;22.90;63.20;;;;;;5069520;28;20101;-64
2021/11/01 02:25:31;;;;;;;4.03;1.48;;;22.90;63.30;;;;;;5068686;28;20079;-57
2021/11/01 02:27:59;;;;;;;5.60;2.08;;;22.90;63.30;;;;;;5065152;28;20066;-61
2021/11/01 02:30:27;;;;;;;6.20;2.67;;;22.80;63.30;;;;;;5070060;28;20020;-64
2021/11/01 02:32:54;;;;;;;4.82;2.08;;;22.90;63.50;;;;;;5069738;28;20029;-62
2021/11/01 02:35:22;;;;;;;4.78;2.00;;;22.90;63.70;;;;;;5068382;28;20426;-57
2021/11/01 02:37:49;;;;;;;7.55;1.92;;;22.90;64.10;;;;;;5065073;28;20112;-59
2021/11/01 02:40:17;;;;;;;4.32;1.92;;;22.90;64.00;;;;;;5068996;28;20099;-60
2021/11/01 02:42:45;;;;;;;5.70;2.60;;;22.90;64.00;;;;;;5068876;28;20032;-61
2021/11/01 02:45:13;;;;;;;10.48;2.25;;;22.90;64.40;;;;;;5068615;28;20024;-60
2021/11/01 02:47:41;;;;;;;5.88;1.98;;;23.00;63.80;;;;;;5065209;28;20063;-60
2021/11/01 02:50:11;;;;;;;5.07;2.35;;;23.10;63.70;;;;;;5065909;28;20021;-60
2021/11/01 02:52:39;;;;;;;5.20;2.00;;;23.10;63.50;;;;;;5068446;28;20028;-66
2021/11/01 02:55:09;;;;;;;6.32;2.53;;;23.10;63.40;;;;;;5069479;28;20040;-65
2021/11/01 02:57:37;;;;;;;5.95;2.28;;;23.10;63.90;;;;;;5065936;28;20016;-62
2021/11/01 03:00:07;;;;;;;3.63;1.85;;;23.10;63.60;;;;;;5069053;28;20475;-62
2021/11/01 03:02:37;;;;;;;4.63;1.90;;;23.20;63.30;;;;;;5069403;28;20032;-62
2021/11/01 03:05:08;;;;;;;8.02;1.92;;;23.10;64.00;;;;;;5068887;28;20126;-61
2021/11/01 03:07:37;;;;;;;6.30;1.60;;;23.10;63.70;;;;;;5064158;28;20532;-62
2021/11/01 03:10:06;;;;;;;6.65;2.17;;;23.20;63.30;;;;;;5069281;28;20029;-63
2021/11/01 03:12:34;;;;;;;4.57;1.85;;;23.10;63.60;;;;;;5069113;28;20035;-63
2021/11/01 03:15:04;;;;;;;5.65;1.80;;;23.10;63.50;;;;;;5068811;28;20073;-64
2021/11/01 03:17:37;;;;;;;3.30;1.95;;;23.00;63.20;;;;;;5063314;28;20621;-61
2021/11/01 03:20:12;;;;;;;5.18;2.45;;;23.10;63.80;;;;;;5069338;28;20310;-64
2021/11/01 03:22:48;;;;;;;5.03;2.05;;;22.90;63.90;;;;;;5068032;28;20027;-63
2021/11/01 03:25:33;;;;;;;4.90;1.67;;;22.90;64.10;;;;;;5069467;28;20108;-62
2021/11/01 03:28:04;;;;;;;4.80;1.90;;;22.90;63.80;;;;;;5062727;28;20451;-63
2021/11/01 03:30:33;;;;;;;8.63;1.70;;;22.90;64.40;;;;;;5069051;28;20028;-63
2021/11/01 03:33:01;;;;;;;5.97;1.60;;;22.90;64.40;;;;;;5068751;28;20044;-64
2021/11/01 03:35:30;;;;;;;5.35;1.85;;;22.90;64.10;;;;;;5068632;28;20383;-63
2021/11/01 03:38:02;;;;;;;5.25;1.95;;;22.80;64.30;;;;;;5062818;28;20064;-63
2021/11/01 03:40:33;;;;;;;3.13;1.30;;;22.80;64.70;;;;;;5069321;28;20182;-64
2021/11/01 03:43:04;;;;;;;4.18;1.75;;;22.80;64.60;;;;;;5067890;28;20052;-62
2021/11/01 03:45:34;;;;;;;12.70;2.17;;;22.70;64.60;;;;;;5067385;28;20134;-64
2021/11/01 03:48:04;;;;;;;4.25;1.55;;;22.70;64.80;;;;;;5064540;28;20033;-63
2021/11/01 03:50:45;;;;;;;3.58;1.38;;;22.60;65.00;;;;;;5068281;28;20075;-63
2021/11/01 03:53:12;;;;;;;5.32;1.80;;;22.60;65.50;;;;;;5069461;28;20036;-65
2021/11/01 03:55:40;;;;;;;9.60;2.15;;;22.50;65.60;;;;;;5072824;28;20049;-65
2021/11/01 03:58:08;;;;;;;4.93;1.77;;;22.50;65.80;;;;;;5067995;28;20513;-65
2021/11/01 04:00:37;;;;;;;7.13;1.80;;;22.50;65.80;;;;;;5072783;28;20497;-65
2021/11/01 04:03:05;;;;;;;5.32;2.25;;;22.50;65.80;;;;;;5072597;28;20029;-62
2021/11/01 04:05:33;;;;;;;9.20;4.28;;;22.50;65.80;;;;;;5072680;28;20431;-60
2021/11/01 04:08:00;;;;;;;10.38;5.05;;;22.50;65.70;;;;;;5066673;28;20043;-64
2021/11/01 04:10:28;;;;;;;8.63;4.50;;;22.60;65.70;;;;;;5070612;28;20020;-65
2021/11/01 04:12:57;;;;;;;12.05;8.15;;;22.60;65.60;;;;;;5071889;28;20490;-64
2021/11/01 04:15:25;;;;;;;10.00;6.25;;;22.70;65.60;;;;;;5071672;28;20025;-62
2021/11/01 04:18:02;;;;;;;12.52;10.30;;;22.60;65.70;;;;;;5067983;28;20116;-59
2021/11/01 04:20:39;;;;;;;12.40;7.38;;;22.60;65.80;;;;;;5072215;28;20028;-64
2021/11/01 04:23:11;;;;;;;9.00;5.47;;;22.70;65.80;;;;;;5071304;28;20082;-57
2021/11/01 04:25:38;;;;;;;11.68;6.60;;;22.60;65.80;;;;;;5072139;28;20036;-61
2021/11/01 04:28:06;;;;;;;5.47;3.88;;;22.70;65.80;;;;;;5067082;28;20024;-60
2021/11/01 04:30:42;;;;;;;8.70;4.03;;;22.70;65.80;;;;;;5071948;28;20155;-60
2021/11/01 04:33:14;;;;;;;8.07;4.18;;;22.80;65.90;;;;;;5071964;28;20024;-59
2021/11/01 04:35:42;;;;;;;11.98;6.40;;;22.80;65.60;;;;;;5071507;28;20028;-64
2021/11/01 04:52:57;;;;;;;6.95;3.30;;;23.00;65.10;;;;;;5067251;28;20036;-56
2021/11/01 04:54:45;;;;;;;9.55;2.38;;;23.00;65.10;;;;;;5071124;28;20043;-56
2021/11/01 04:57:14;;;;;;;6.20;2.17;;;23.00;65.20;;;;;;5068137;28;20025;-51
2021/11/01 04:59:41;;;;;;;6.70;2.53;;;23.00;65.30;;;;;;5070101;28;20109;-56
2021/11/01 05:02:08;;;;;;;5.88;1.98;;;23.00;65.30;;;;;;5071562;28;20502;-52
2021/11/01 05:04:37;;;;;;;8.38;2.35;;;23.00;65.40;;;;;;5069848;28;20029;-55
2021/11/01 05:07:07;;;;;;;6.82;2.60;;;23.00;65.50;;;;;;5069747;28;20040;-64
2021/11/01 05:09:42;;;;;;;9.00;2.33;;;22.90;65.70;;;;;;5070066;28;20045;-62
2021/11/01 05:12:22;;;;;;;6.95;2.08;;;22.80;65.80;;;;;;5070786;28;20028;-62
2021/11/01 05:18:14;;;;;;;9.15;2.45;;;22.70;66.50;;;;;;5068508;28;20020;-64
2021/11/01 05:20:26;;;;;;;7.70;1.70;;;22.70;66.70;;;;;;5062958;28;20045;-65
2021/11/01 05:25:47;;;;;;;6.07;1.70;;;22.70;66.90;;;;;;5067212;28;20025;-67
2021/11/01 05:28:41;;;;;;;4.82;1.92;;;22.70;67.00;;;;;;5065684;28;20398;-64
2021/11/01 05:31:30;;;;;;;6.72;2.40;;;22.70;67.00;;;;;;5067033;28;20036;-61
2021/11/01 05:34:08;;;;;;;7.47;2.15;;;22.70;66.90;;;;;;5067973;28;20446;-64
2021/11/01 05:36:36;;;;;;;5.85;1.67;;;22.70;66.80;;;;;;5068248;28;20336;-63
2021/11/01 05:39:05;;;;;;;4.90;1.73;;;22.70;67.10;;;;;;5066350;28;20032;-62
2021/11/01 05:41:32;;;;;;;6.63;1.77;;;22.70;66.90;;;;;;5069853;28;20028;-62
2021/11/01 05:43:59;;;;;;;4.78;1.73;;;22.70;67.00;;;;;;5070513;28;20051;-64
2021/11/01 05:46:34;;;;;;;4.70;1.90;;;22.70;67.30;;;;;;5069114;28;20020;-64
2021/11/01 05:49:03;;;;;;;7.85;2.15;;;22.70;67.40;;;;;;5066052;28;20123;-63
2021/11/01 05:51:31;;;;;;;4.25;1.92;;;22.60;67.40;;;;;;5062968;28;20071;-61
2021/11/01 05:54:17;;;;;;;6.70;1.90;;;22.60;67.50;;;;;;5067362;28;20179;-63
2021/11/01 05:56:54;;;;;;;4.70;1.50;;;22.60;67.70;;;;;;5066476;28;20040;-64
2021/11/01 06:02:16;;;;;;;9.95;1.67;;;22.50;68.50;;;;;;5066629;28;20032;-61
2021/11/01 06:04:53;;;;;;;7.28;1.52;;;22.30;69.70;;;;;;5068797;28;20017;-60
2021/11/01 06:07:41;;;;;;;7.85;2.50;;;22.10;71.00;;;;;;5067118;28;20036;-64
2021/11/01 06:15:26;;;;;;;9.27;3.15;;;22.10;71.30;;;;;;5070522;28;20035;-65
2021/11/01 06:17:56;;;;;;;9.30;5.00;;;22.10;70.90;;;;;;5065921;28;20795;-66
2021/11/01 06:20:24;;;;;;;7.20;1.70;;;22.10;71.20;;;;;;5070531;28;20032;-66
2021/11/01 06:22:53;;;;;;;15.77;3.38;;;21.90;72.30;;;;;;5069472;28;20073;-67
2021/11/01 06:25:21;;;;;;;7.97;2.63;;;21.80;72.70;;;;;;5068147;28;20487;-63
2021/11/01 06:27:53;;;;;;;5.05;1.40;;;21.80;73.00;;;;;;5065832;28;20144;-65
2021/11/01 06:30:30;;;;;;;9.52;4.82;;;21.70;73.70;;;;;;5069690;28;20167;-62
2021/11/01 06:33:11;;;;;;;10.98;2.42;;;21.80;72.30;;;;;;5068827;28;20040;-62
2021/11/01 06:57:43;;;;;;;8.13;2.03;;;21.60;74.10;;;;;;5072481;28;20126;-65
2021/11/01 07:14:51;;;;;;;7.75;2.10;;;21.40;74.60;;;;;;5069550;28;20054;-64
2021/11/01 07:17:04;;;;;;;7.93;2.00;;;21.30;75.10;;;;;;5061694;28;20036;-66
2021/11/01 07:22:53;;;;;;;11.30;3.83;;;21.30;75.20;;;;;;5069877;28;20036;-65
2021/11/01 08:21:03;;;;;;;23.88;2.80;;;21.40;76.90;;;;;;5073713;28;20065;-62
2021/11/01 08:39:45;;;;;;;9.85;1.83;;;21.40;78.60;;;;;;5073924;28;20125;-61
2021/11/01 08:42:29;;;;;;;14.05;2.00;;;21.40;80.30;;;;;;5074140;28;20475;-62
2021/11/01 08:47:50;;;;;;;7.80;1.73;;;21.20;75.90;;;;;;5074461;28;20068;-60
2021/11/01 09:04:06;;;;;;;8.73;1.77;;;20.90;79.00;;;;;;5071539;28;20032;-61
2021/11/01 09:13:01;;;;;;;9.18;2.00;;;20.90;80.70;;;;;;5020299;28;20809;-50
2021/11/01 09:21:00;;;;;;;8.00;1.67;;;21.00;81.10;;;;;;5066905;28;20104;-67
2021/11/01 09:26:05;;;;;;;9.82;2.15;;;21.20;82.60;;;;;;5069827;28;20016;-67
2021/11/01 09:36:47;;;;;;;8.88;2.30;;;21.30;81.10;;;;;;5065252;28;20451;-66
2021/11/01 09:42:13;;;;;;;6.78;1.65;;;21.50;80.80;;;;;;5047900;28;19919;-61
2021/11/01 09:44:41;;;;;;;8.85;2.03;;;21.40;80.90;;;;;;5068206;28;20032;-61
2021/11/01 09:47:09;;;;;;;10.50;2.15;;;21.50;80.60;;;;;;5069989;28;20479;-71
2021/11/01 09:49:37;;;;;;;8.63;2.05;;;21.50;80.50;;;;;;5066601;28;20032;-66
2021/11/01 09:52:08;;;;;;;14.32;2.15;;;21.50;80.40;;;;;;5069002;28;20025;-60
2021/11/01 09:54:38;;;;;;;16.88;2.17;;;21.50;80.30;;;;;;5069753;28;20052;-62
2021/11/01 09:57:19;;;;;;;9.68;1.63;;;21.50;80.50;;;;;;5070176;28;20048;-63
2021/11/01 09:59:46;;;;;;;9.43;2.25;;;21.50;80.30;;;;;;5065313;28;20024;-62
2021/11/01 10:02:17;;;;;;;9.50;1.38;;;21.50;80.20;;;;;;5068897;28;20094;-62
2021/11/01 10:04:48;;;;;;;6.18;1.40;;;21.60;80.30;;;;;;5065039;28;20085;-65
2021/11/01 10:10:13;;;;;;;8.70;2.85;;;21.50;80.10;;;;;;5066423;28;20082;-62
2021/11/01 10:12:44;;;;;;;13.07;6.32;;;21.50;79.90;;;;;;5069712;28;20028;-61
2021/11/01 10:18:19;;;;;;;41.70;32.58;;;21.50;80.20;;;;;;5063292;28;20036;-63
2021/11/01 10:20:52;;;;;;;59.00;45.85;;;21.50;80.20;;;;;;5066435;28;20070;-62
2021/11/01 10:23:25;;;;;;;64.97;51.45;;;21.50;80.10;;;;;;5066256;28;20081;-63
2021/11/01 10:26:21;;;;;;;90.50;66.97;;;21.50;80.20;;;;;;5068924;28;20444;-64
2021/11/01 10:28:53;;;;;;;131.95;110.63;;;21.40;80.10;;;;;;5053034;28;20614;-62
2021/11/01 10:31:23;;;;;;;144.95;124.00;;;21.50;80.20;;;;;;5068876;28;20028;-60
2021/11/01 10:34:03;;;;;;;148.60;129.15;;;21.40;80.10;;;;;;5068786;28;20056;-62
2021/11/01 10:36:40;;;;;;;143.73;123.80;;;21.50;80.20;;;;;;5069369;28;20430;-64
2021/11/01 10:39:14;;;;;;;162.25;132.90;;;21.50;80.10;;;;;;5064538;28;20028;-61
2021/11/01 11:13:10;;;;;;;135.93;118.88;;;21.50;79.60;;;;;;5071101;28;20066;-64
2021/11/01 11:15:39;;;;;;;128.77;111.95;;;21.50;79.60;;;;;;5073691;28;20456;-60
2021/11/01 11:18:33;;;;;;;124.95;110.97;;;21.50;79.60;;;;;;5067540;28;20040;-60
2021/11/01 11:21:16;;;;;;;125.43;109.13;;;21.50;79.60;;;;;;5073159;28;20033;-61
2021/11/01 11:49:26;;;;;;;101.72;89.90;;;21.50;79.40;;;;;;5026457;28;20519;-61
2021/11/01 11:51:59;;;;;;;100.22;87.30;;;21.50;79.50;;;;;;5030281;28;20029;-62
2021/11/01 11:54:34;;;;;;;100.88;89.28;;;21.40;79.70;;;;;;5052105;28;20039;-60
2021/11/01 11:57:04;;;;;;;100.85;88.35;;;21.40;79.30;;;;;;5073658;28;20048;-69
2021/11/01 11:59:37;;;;;;;94.85;84.50;;;21.40;79.30;;;;;;5068196;28;20115;-67
2021/11/01 12:02:10;;;;;;;102.07;87.40;;;21.40;79.40;;;;;;5075889;28;20495;-65
2021/11/01 12:04:45;;;;;;;102.07;82.88;;;21.40;79.30;;;;;;5061174;28;20020;-63
2021/11/01 12:07:15;;;;;;;93.30;83.40;;;21.40;79.10;;;;;;5075285;28;20383;-65
2021/11/01 12:10:02;;;;;;;97.75;85.20;;;21.40;79.20;;;;;;5074710;28;20111;-66
2021/11/01 12:17:57;;;;;;;87.45;77.95;;;21.40;79.40;;;;;;5075214;28;20075;-69
2021/11/01 12:20:24;;;;;;;86.00;76.53;;;21.30;79.20;;;;;;5075408;28;20375;-68
2021/11/01 12:23:03;;;;;;;86.13;76.72;;;21.30;79.30;;;;;;5075112;28;20021;-67
2021/11/01 12:25:39;;;;;;;87.90;77.43;;;21.30;79.30;;;;;;5075299;28;20032;-69
2021/11/01 12:28:13;;;;;;;82.95;73.75;;;21.30;79.30;;;;;;5073952;28;20042;-67
2021/11/01 12:30:45;;;;;;;83.15;73.65;;;21.40;79.50;;;;;;5073745;28;20116;-65
2021/11/01 12:33:13;;;;;;;80.43;71.90;;;21.30;79.40;;;;;;5074493;28;20024;-68
2021/11/01 12:35:44;;;;;;;82.35;73.53;;;21.30;79.40;;;;;;5075673;28;20016;-68
2021/11/01 12:38:14;;;;;;;78.97;70.32;;;21.30;79.40;;;;;;5073356;28;20078;-64
2021/11/01 12:49:23;;;;;;;75.00;62.30;;;21.30;79.60;;;;;;5075139;28;20123;-68
2021/11/01 12:57:35;;;;;;;67.07;58.72;;;21.20;79.60;;;;;;5056925;28;20479;-59
2021/11/01 13:00:06;;;;;;;68.03;59.95;;;21.20;79.50;;;;;;5071682;28;20151;-65
2021/11/01 13:02:37;;;;;;;66.10;59.03;;;21.20;79.60;;;;;;5069129;28;20056;-63
2021/11/01 13:05:30;;;;;;;68.53;58.88;;;21.10;79.60;;;;;;5071129;28;20761;-62
2021/11/01 13:08:09;;;;;;;68.00;57.53;;;21.20;79.80;;;;;;5069080;28;20139;-59
2021/11/01 13:10:41;;;;;;;62.33;55.58;;;21.10;79.90;;;;;;5071213;28;20029;-67
2021/11/01 13:19:03;;;;;;;66.30;58.03;;;21.10;80.00;;;;;;5068044;28;20448;-66
2021/11/01 13:21:39;;;;;;;65.03;57.25;;;21.10;80.00;;;;;;5068206;28;20027;-62
2021/11/01 13:24:10;;;;;;;61.30;54.38;;;21.00;80.10;;;;;;5069636;28;20028;-61
2021/11/01 13:35:15;;;;;;;67.97;57.60;;;21.00;80.20;;;;;;5071360;28;20168;-60
2021/11/01 13:37:48;;;;;;;66.45;57.13;;;21.00;80.20;;;;;;5068755;28;20346;-60
2021/11/01 13:40:17;;;;;;;62.70;56.05;;;21.00;80.20;;;;;;5070772;28;20024;-60
2021/11/01 13:42:59;;;;;;;62.78;56.05;;;21.00;80.20;;;;;;5067738;28;20020;-61
2021/11/01 13:45:27;;;;;;;62.25;55.50;;;20.90;80.10;;;;;;5069428;28;20089;-66
2021/11/01 13:47:58;;;;;;;61.97;54.67;;;21.00;80.20;;;;;;5067948;28;20029;-69
2021/11/01 13:50:35;;;;;;;60.58;54.10;;;21.00;80.20;;;;;;5068030;28;20028;-65
2021/11/01 13:53:19;;;;;;;61.22;54.50;;;20.90;80.10;;;;;;5065735;28;20052;-61
2021/11/01 14:00:57;;;;;;;59.00;52.75;;;20.90;80.00;;;;;;5070778;28;20055;-66
2021/11/01 14:03:47;;;;;;;63.05;53.20;;;20.90;80.00;;;;;;5066457;28;20050;-62
2021/11/01 14:11:53;;;;;;;57.40;49.97;;;20.90;80.00;;;;;;5070269;28;20540;-60
2021/11/01 14:28:20;;;;;;;53.08;47.40;;;20.80;80.00;;;;;;5068515;28;20540;-61
2021/11/01 14:34:32;;;;;;;;;;;20.80;80.00;;;;;;5066314;28;20107;-61
2021/11/01 14:36:45;;;;;;;53.35;47.53;;;20.80;79.90;;;;;;5060462;28;19911;-60
2021/11/01 14:58:44;;;;;;;48.40;43.25;;;20.70;79.70;;;;;;5069686;28;20025;-60
2021/11/01 15:20:07;;;;;;;44.63;39.80;;;20.60;79.50;;;;;;5069531;28;20070;-61
2021/11/01 15:22:53;;;;;;;44.53;38.90;;;20.70;79.50;;;;;;5069831;28;20025;-61
2021/11/01 15:42:15;;;;;;;41.22;36.83;;;20.60;79.30;;;;;;5069719;28;20025;-59
2021/11/01 16:19:51;;;;;;;35.08;31.52;;;20.40;79.00;;;;;;5074452;28;20029;-67
2021/11/01 16:22:19;;;;;;;33.20;29.70;;;20.40;78.90;;;;;;5075625;28;20372;-62
2021/11/01 16:24:50;;;;;;;34.38;29.55;;;20.40;79.10;;;;;;5074733;28;20028;-65
2021/11/01 16:27:20;;;;;;;32.60;29.20;;;20.40;78.90;;;;;;5075817;28;20025;-62
2021/11/01 16:29:53;;;;;;;30.63;27.52;;;20.40;78.90;;;;;;5075091;28;20064;-64
2021/11/01 16:32:28;;;;;;;31.83;28.52;;;20.40;79.00;;;;;;5076108;28;20028;-65
2021/11/01 16:34:58;;;;;;;32.85;28.95;;;20.40;78.90;;;;;;5076010;28;20107;-63
2021/11/01 16:37:29;;;;;;;32.67;29.05;;;20.30;78.80;;;;;;5075578;28;20056;-67
2021/11/01 16:40:04;;;;;;;29.90;26.63;;;20.30;79.00;;;;;;5075780;28;20391;-64
2021/11/01 16:42:35;;;;;;;30.65;27.45;;;20.30;78.80;;;;;;5075419;28;20428;-64
2021/11/01 16:45:11;;;;;;;30.38;26.60;;;20.30;78.80;;;;;;5075335;28;20471;-61
2021/11/01 16:47:42;;;;;;;29.58;26.25;;;20.30;78.80;;;;;;5075017;28;20025;-66
2021/11/01 16:50:11;;;;;;;28.67;25.70;;;20.30;79.10;;;;;;5075229;28;20028;-65
2021/11/01 16:52:39;;;;;;;29.17;25.85;;;20.30;78.80;;;;;;5074917;28;20115;-66
2021/11/01 16:55:33;;;;;;;28.48;25.25;;;20.20;78.80;;;;;;5074535;28;20056;-67
2021/11/01 16:58:08;;;;;;;28.50;25.55;;;20.20;78.80;;;;;;5074658;28;20494;-67
2021/11/01 17:00:44;;;;;;;29.75;25.13;;;20.20;78.80;;;;;;5073520;28;20020;-66
2021/11/01 17:21:55;;;;;;;25.25;22.65;;;20.20;78.70;;;;;;5074665;28;20050;-64
2021/11/01 18:38:16;;;;;;;18.58;15.10;;;19.90;78.20;;;;;;5073005;28;20138;-63
2021/11/01 18:43:28;;;;;;;17.23;15.38;;;19.90;78.30;;;;;;5073169;28;20029;-60
2021/11/01 18:51:33;;;;;;;18.17;14.02;;;19.90;78.20;;;;;;5072297;28;20031;-61
2021/11/01 18:54:39;;;;;;;17.35;14.23;;;19.90;78.20;;;;;;5072990;28;20383;-60
2021/11/01 18:57:00;;;;;;;16.88;14.52;;;19.90;78.40;;;;;;5067229;28;20124;-60
2021/11/01 18:59:29;;;;;;;14.93;13.20;;;19.90;78.20;;;;;;5072545;28;20025;-62
2021/11/01 19:04:46;;;;;;;15.70;14.05;;;19.90;78.20;;;;;;5072701;28;20023;-63
2021/11/01 19:08:06;;;;;;;16.05;13.07;;;19.90;78.20;;;;;;5072461;28;20070;-64
2021/11/01 20:15:14;;;;;;;11.68;9.73;;;19.90;77.60;;;;;;5075075;28;20039;-62
2021/11/01 21:25:08;;;;;;;9.93;6.50;;;20.70;78.90;;;;;;5054044;28;20036;-67
2021/11/01 21:27:36;;;;;;;9.15;6.20;;;20.70;79.00;;;;;;5053560;28;20031;-65
2021/11/01 21:30:05;;;;;;;8.32;6.43;;;20.80;78.40;;;;;;5053537;28;20166;-65
2021/11/01 21:32:32;;;;;;;8.63;5.85;;;20.80;79.20;;;;;;5053504;28;20020;-65
2021/11/01 21:35:04;;;;;;;11.07;5.55;;;20.90;79.80;;;;;;5053045;28;20091;-63
2021/11/01 21:37:31;;;;;;;8.65;6.00;;;20.90;79.80;;;;;;5068415;28;20463;-65
2021/11/01 21:39:59;;;;;;;7.60;5.85;;;21.00;78.80;;;;;;5053417;28;20144;-68
2021/11/01 21:42:27;;;;;;;9.95;6.95;;;21.00;78.70;;;;;;5053068;28;20349;-64
2021/11/01 21:44:55;;;;;;;7.75;5.75;;;21.00;78.00;;;;;;5053324;28;20086;-64
2021/11/01 21:47:22;;;;;;;7.53;5.22;;;21.10;77.90;;;;;;5052142;28;20029;-64
2021/11/01 21:49:50;;;;;;;7.78;5.50;;;21.10;77.90;;;;;;5052095;28;20388;-66
2021/11/01 21:52:18;;;;;;;8.13;6.00;;;21.10;77.50;;;;;;5052930;28;20025;-63
2021/11/01 21:54:48;;;;;;;8.60;5.40;;;21.10;77.60;;;;;;5053265;28;20037;-67
2021/11/01 22:00:10;;;;;;;7.43;4.95;;;21.20;77.80;;;;;;5053407;28;20530;-64
2021/11/01 22:22:29;;;;;;;7.78;4.72;;;21.60;76.60;;;;;;5052376;28;20021;-66
2021/11/01 22:45:26;;;;;;;7.18;4.18;;;21.90;75.00;;;;;;5051883;28;20033;-66
2021/11/01 22:48:27;;;;;;;8.45;4.68;;;21.90;75.20;;;;;;5052451;28;20029;-67
2021/11/01 22:56:38;;;;;;;6.05;3.80;;;21.90;75.00;;;;;;5051376;28;20048;-66
2021/11/01 22:59:05;;;;;;;6.28;4.28;;;22.00;75.00;;;;;;5050376;28;20113;-62
2021/11/01 23:01:40;;;;;;;6.00;3.00;;;21.90;75.40;;;;;;5051830;28;20024;-66
2021/11/01 23:31:49;;;;;;;5.75;3.42;;;22.30;74.70;;;;;;5051336;28;20071;-63
2021/11/01 23:34:18;;;;;;;3.85;3.05;;;22.30;74.50;;;;;;5051407;28;20032;-63
2021/11/01 23:36:46;;;;;;;3.72;3.03;;;22.40;74.30;;;;;;5051323;28;20025;-63
2021/11/01 23:39:15;;;;;;;6.35;3.40;;;22.50;73.00;;;;;;5050693;28;20033;-63
2021/11/01 23:41:48;;;;;;;5.70;3.45;;;22.50;73.40;;;;;;5051337;28;20391;-65
2021/11/01 23:44:17;;;;;;;4.28;2.92;;;22.60;72.20;;;;;;5051265;28;20033;-65
2021/11/01 23:46:45;;;;;;;5.03;3.40;;;22.60;72.80;;;;;;5051510;28;20051;-64
2021/11/01 23:49:13;;;;;;;3.65;2.75;;;22.70;73.10;;;;;;5051335;28;20369;-63
2021/11/01 23:51:48;;;;;;;3.88;2.95;;;22.70;72.90;;;;;;5050874;28;20131;-65
2021/11/01 23:56:50;;;;;;;5.45;3.03;;;22.70;73.40;;;;;;5051530;28;20026;-67
2021/11/01 23:59:18;;;;;;;4.65;2.80;;;22.70;72.80;;;;;;5051380;28;20119;-66
